Monday, May 30, 2016, 4:08 PM EDT

KNHK, Nas Patuxent River Md

Location: Patuxent River, MD, United States Lat: 38.3
Local Time: 4:08 PM EDT (20:08 GMT) Lon: -76.4
Time Zone: US/Eastern Elev: 39 ft

Show me the last for .
Show Decoded

2016-05-30 14:52 METAR KNHK 301852Z AUTO 15006KT 10SM FEW024 SCT034 OVC120 22/20 A2999 RMK AO2
                 CIG 048 RY24 SLP154 T02220200 PWINO $ =
2016-05-30 13:52 METAR KNHK 301752Z AUTO 15009KT 9SM FEW007 FEW034 BKN110 21/20 A2999 RMK AO2 CIG
                 046 RY24 SLP154 T02110200 10222 20211 58011 PWINO $ =
2016-05-30 13:45 METAR KNHK 301745Z AUTO 15007KT 6SM BR SCT006 SCT039 BKN120 21/19 A2999 RMK AO2
                 CIG 009 RY24 T02110194 PWINO $ =
2016-05-30 13:12 METAR KNHK 301712Z AUTO 08004KT 8SM OVC006 22/19 A3000 RMK AO2 T02170194 PWINO $
                 =
2016-05-30 13:01 METAR KNHK 301701Z AUTO 03003KT 7SM OVC007 22/19 A3000 RMK AO2 T02170194 PWINO $
                 =
2016-05-30 12:52 METAR KNHK 301652Z AUTO 04004KT 6SM BR OVC006 22/19 A3000 RMK AO2 SLP160
                 T02170194 PWINO $ =
2016-05-30 12:35 METAR KNHK 301635Z AUTO 01004KT 9SM OVC006 22/20 A3001 RMK AO2 T02170200 PWINO $
                 =
2016-05-30 12:20 METAR KNHK 301620Z AUTO 00000KT 7SM OVC005 22/20 A3001 RMK AO2 T02170200 PWINO $
                 =
2016-05-30 12:10 METAR KNHK 301610Z AUTO 03003KT 6SM BR OVC004 21/20 A3001 RMK AO2 T02110200
                 PWINO $ =
2016-05-30 11:52 METAR KNHK 301552Z AUTO 03004KT 3SM BR OVC003 21/20 A3001 RMK AO2 SLP162
                 T02110200 PWINO $ =
2016-05-30 11:04 METAR KNHK 301504Z AUTO 05004KT 4SM BR OVC002 21/20 A3002 RMK AO2 T02110200
                 PWINO $ =
2016-05-30 10:52 METAR KNHK 301452Z AUTO 04003KT 2SM BR OVC002 21/20 A3002 RMK AO2 SLP165
                 T02110200 50001 PWINO $ =
2016-05-30 10:38 METAR KNHK 301438Z AUTO 05003KT 3SM BR OVC002 21/20 A3002 RMK AO2 VIS 2 RY24
                 T02110200 PWINO $ =
2016-05-30 10:27 METAR KNHK 301427Z AUTO 05004KT 2 1/2SM BR OVC003 21/20 A3002 RMK AO2 T02110200
                 PWINO $ =
2016-05-30 09:52 METAR KNHK 301352Z AUTO 05003KT 5SM BR OVC002 22/21 A3003 RMK AO2 VIS 2 1/2 RY24
                 SLP168 T02170206 PWINO $ =
2016-05-30 08:52 METAR KNHK 301252Z AUTO 00000KT 8SM OVC003 22/21 A3002 RMK AO2 SLP164 T02170206
                 PWINO $ =
2016-05-30 07:52 METAR KNHK 301152Z AUTO 00000KT 5SM BR OVC002 22/21 A3001 RMK AO2 SLP164 70002
                 T02170206 10228 20206 51008 PWINO $ =
2016-05-30 07:45 METAR KNHK 301145Z AUTO 00000KT 4SM BR OVC002 21/21 A3001 RMK AO2 T02110206
                 PWINO $ =
2016-05-30 07:29 METAR KNHK 301129Z AUTO 08003KT 2SM BR OVC002 21/20 A3001 RMK AO2 T02110200
                 PWINO $ =
2016-05-30 07:22 METAR KNHK 301122Z AUTO 00000KT 1 1/2SM BR OVC002 21/20 A3001 RMK AO2 T02110200
                 PWINO $ =
2016-05-30 07:06 METAR KNHK 301106Z AUTO 06003KT 1SM BR OVC002 21/20 A3001 RMK AO2 T02060200
                 PWINO $ =
2016-05-30 06:56 METAR KNHK 301056Z AUTO 05004KT 1 1/4SM BR OVC002 21/20 A3001 RMK AO2 T02110200
                 PWINO $ =
2016-05-30 06:44 METAR KNHK 301044Z AUTO 36003KT 2SM BR OVC003 22/21 A3001 RMK AO2 VIS 1/2 RY24
                 T02170206 PWINO $ =
2016-05-30 06:29 METAR KNHK 301029Z AUTO 00000KT 2 1/2SM BR OVC004 22/21 A3001 RMK AO2 T02170206
                 PWINO $ =
2016-05-30 06:12 METAR KNHK 301012Z AUTO 00000KT 5SM BR OVC005 22/21 A3000 RMK AO2 T02170206
                 PWINO $ =
2016-05-30 05:52 METAR KNHK 300952Z AUTO 00000KT 6SM BR OVC006 22/21 A3000 RMK AO2 SLP157
                 T02170206 PWINO $ =
2016-05-30 05:22 METAR KNHK 300922Z AUTO 10003KT 4SM BR OVC005 21/20 A2999 RMK AO2 T02110200
                 PWINO $ =
2016-05-30 04:52 METAR KNHK 300852Z AUTO 18003KT 9SM OVC006 23/21 A2999 RMK AO2 VIS 2 1/2 RY24
                 SLP155 T02280211 55004 PWINO $ =
2016-05-30 04:25 METAR KNHK 300825Z AUTO 00000KT 8SM OVC006 22/21 A2999 RMK AO2 VIS 1 1/2 RY24
                 T02220211 PWINO $ =
2016-05-30 04:07 METAR KNHK 300807Z AUTO 18004KT 7SM SCT002 OVC008 22/21 A2999 RMK AO2 VIS 1 1/4
                 RY24 CIG 002 RY24 T02220211 PWINO $ =
2016-05-30 03:52 METAR KNHK 300752Z AUTO 18004KT 5SM BR BKN002 OVC010 22/21 A2999 RMK AO2 VIS 1
                 RY24 SLP155 T02220211 PWINO $ =
2016-05-30 03:17 METAR KNHK 300717Z AUTO 16004KT 3SM BR OVC002 22/21 A2999 RMK AO2 VIS 1 1/4 RY24
                 T02220211 PWINO $ =
2016-05-30 03:07 METAR KNHK 300707Z AUTO 17004KT 3SM BR OVC004 22/21 A3000 RMK AO2 VIS 2 1/2 RY24
                 T02220211 PWINO $ =
2016-05-30 02:52 METAR KNHK 300652Z AUTO 16005KT 5SM BR BKN006 OVC012 22/21 A3000 RMK AO2 SLP160
                 T02220211 PWINO $ =
2016-05-30 02:18 METAR KNHK 300618Z AUTO 21003KT 5SM BR SCT003 OVC011 22/21 A3002 RMK AO2
                 T02220211 PWINO $ =
2016-05-30 02:02 METAR KNHK 300602Z AUTO 23004KT 6SM BR OVC003 22/21 A3003 RMK AO2 T02220211
                 PWINO $ =
2016-05-30 01:52 METAR KNHK 300552Z AUTO 23003KT 8SM OVC004 22/21 A3004 RMK AO2 SLP171 T02220211
                 10222 20222 58002 PWINO $ =
2016-05-30 01:42 METAR KNHK 300542Z AUTO 21004KT 7SM OVC004 22/21 A3003 RMK AO2 T02220211 PWINO $
                 =
2016-05-30 01:16 METAR KNHK 300516Z AUTO 20003KT 7SM OVC003 22/21 A3003 RMK AO2 T02220211 PWINO $
                 =
2016-05-30 00:52 METAR KNHK 300452Z AUTO 20004KT 9SM OVC004 22/21 A3004 RMK AO2 SLP171 T02220211
                 402670156 PWINO $ =
2016-05-29 23:52 METAR KNHK 300352Z AUTO VRB03KT 9SM OVC004 22/21 A3004 RMK AO2 SLP172 T02220211
                 PWINO $ =
2016-05-29 23:38 METAR KNHK 300338Z AUTO VRB03KT 9SM OVC004 22/21 A3004 RMK AO2 T02220211 PWINO $
                 =
2016-05-29 23:17 METAR KNHK 300317Z AUTO 15005KT 10SM OVC005 22/21 A3004 RMK AO2 T02220211 PWINO
                 $ =
2016-05-29 23:05 METAR KNHK 300305Z AUTO 13004KT 10SM OVC006 22/21 A3004 RMK AO2 T02220211 PWINO
                 $ =
2016-05-29 22:52 METAR KNHK 300252Z AUTO 15007KT 10SM BKN007 OVC033 22/21 A3004 RMK AO2 SLP173
                 T02220211 58003 PWINO $ =
2016-05-29 22:45 METAR KNHK 300245Z AUTO 14007KT 10SM SCT007 OVC034 22/21 A3004 RMK AO2 CIG 008
                 RY24 T02220206 PWINO $ =
2016-05-29 22:28 METAR KNHK 300228Z AUTO 14006KT 10SM SCT010 BKN035 22/21 A3004 RMK AO2 CIG 009
                 RY24 T02220206 PWINO $ =
2016-05-29 21:52 METAR KNHK 300152Z AUTO 14006KT 10SM BKN013 OVC050 22/21 A3006 RMK AO2 SLP179
                 T02220211 PWINO $ =
2016-05-29 21:37 METAR KNHK 300137Z AUTO 15005KT 8SM BKN013 BKN049 BKN055 22/21 A3006 RMK AO2
                 T02220211 PWINO $ =
2016-05-29 21:14 METAR KNHK 300114Z AUTO 14006KT 7SM SCT014 SCT038 BKN045 22/21 A3004 RMK AO2 CIG
                 014 RY24 T02220211 PWINO $ =
2016-05-29 20:59 METAR KNHK 300059Z AUTO 13005KT 6SM BR FEW003 BKN014 OVC047 22/21 A3005 RMK AO2
                 T02220211 PWINO $ =
2016-05-29 20:52 METAR KNHK 300052Z AUTO 13005KT 6SM BR FEW002 BKN038 OVC050 22/21 A3005 RMK AO2
                 CIG 015 RY24 SLP176 T02220211 PWINO $ =
2016-05-29 20:42 METAR KNHK 300042Z AUTO 13005KT 6SM BR FEW003 BKN042 OVC080 22/21 A3005 RMK AO2
                 CIG 013 RY24 T02220211 PWINO $ =
2016-05-29 19:52 METAR KNHK 292352Z AUTO 13005KT 8SM FEW025 OVC065 22/21 A3005 RMK AO2 CIG 010
                 RY24 SLP176 60002 T02220211 10256 20222 58006 PWINO $ =
2016-05-29 18:52 METAR KNHK 292252Z AUTO 14005KT 10SM FEW012 SCT065 OVC080 23/21 A3006 RMK AO2
                 SLP180 T02280211 PWINO $ =
2016-05-29 18:24 METAR KNHK 292224Z AUTO 14005KT 10SM SCT011 BKN085 23/21 A3006 RMK AO2 T02280211
                 PWINO $ =
2016-05-29 17:52 METAR KNHK 292152Z 14005KT 10SM BKN012 BKN020 OVC060 23/22 A3006 RMK AO2 RAE15
                 SLP180 P0000 T02330217 $ =
2016-05-29 17:15 METAR KNHK 292115Z 14005KT 10SM SCT011 BKN037 OVC110 23/22 A3007 RMK AO2 RAE15
                 P0000 T02330217 $ =
2016-05-29 16:52 METAR KNHK 292052Z 15004KT 10SM -RA SCT013 BKN045 OVC060 23/22 A3007 RMK AO2
                 SLP182 P0001 60002 T02330217 58013 $ =

Support USWX by starting your Amazon purchase here.